Time;durP1;ratioP1;P1;durP2;ratioP2;P2;SDS_P1;SDS_P2;PMS_P1;PMS_P2;Temp;Humidity;BMP_temperature;BMP_pressure;BME280_temperature;BME280_humidity;BME280_pressure;Samples;Min_cycle;Max_cycle;Signal;HPM_P1;HPM_P2
2024/01/03 00:00:08;;;;;;;15.20;2.92;;;;;;;;;;5046737;27;99116;-78
2024/01/03 00:02:35;;;;;;;7.93;2.60;;;;;;;;;;5049421;27;98297;-77
2024/01/03 00:05:02;;;;;;;11.27;2.67;;;;;;;;;;5052848;27;99838;-77
2024/01/03 00:07:28;;;;;;;14.20;3.35;;;;;;;;;;5052733;27;99004;-75
2024/01/03 00:09:56;;;;;;;8.38;2.42;;;;;;;;;;5060780;27;98025;-76
2024/01/03 00:12:23;;;;;;;10.93;1.98;;;;;;;;;;5054706;27;99385;-77
2024/01/03 00:14:50;;;;;;;4.43;2.30;;;;;;;;;;5057453;27;99157;-76
2024/01/03 00:17:17;;;;;;;10.40;2.90;;;;;;;;;;5054988;27;98564;-77
2024/01/03 00:19:44;;;;;;;6.78;1.95;;;;;;;;;;5053980;27;99483;-76
2024/01/03 00:22:13;;;;;;;7.13;1.90;;;;;;;;;;5049054;27;98365;-77
2024/01/03 00:24:45;;;;;;;10.13;1.70;;;;;;;;;;5049796;27;99364;-77
2024/01/03 00:27:11;;;;;;;10.20;2.30;;;;;;;;;;5049267;27;99010;-76
2024/01/03 00:29:50;;;;;;;8.48;1.92;;;;;;;;;;5049781;27;98292;-77
2024/01/03 00:32:17;;;;;;;6.43;2.08;;;;;;;;;;5050567;27;98310;-78
2024/01/03 00:34:45;;;;;;;6.38;1.45;;;;;;;;;;5049512;27;98936;-78
2024/01/03 00:37:21;;;;;;;11.50;2.80;;;;;;;;;;5049041;27;98282;-78
2024/01/03 00:39:47;;;;;;;12.65;3.20;;;;;;;;;;5050087;27;98400;-78
2024/01/03 00:42:14;;;;;;;9.95;1.98;;;;;;;;;;5054482;27;99411;-78
2024/01/03 00:44:40;;;;;;;11.52;2.85;;;;;;;;;;5050416;27;98352;-78
2024/01/03 00:47:07;;;;;;;15.55;2.85;;;;;;;;;;5049852;27;98703;-77
2024/01/03 00:49:34;;;;;;;8.48;2.40;;;;;;;;;;5048881;27;98107;-78
2024/01/03 00:52:01;;;;;;;7.07;2.28;;;;;;;;;;5048276;27;99435;-77
2024/01/03 00:54:28;;;;;;;14.02;2.38;;;;;;;;;;5049786;27;98933;-77
2024/01/03 00:56:55;;;;;;;20.35;2.85;;;;;;;;;;5048157;27;98197;-77
2024/01/03 00:59:21;;;;;;;16.48;1.95;;;;;;;;;;5048835;27;98665;-78
2024/01/03 01:01:48;;;;;;;10.55;2.60;;;;;;;;;;5048271;27;100189;-77
2024/01/03 01:04:15;;;;;;;4.72;2.33;;;;;;;;;;5050664;27;98388;-77
2024/01/03 01:06:42;;;;;;;8.10;2.28;;;;;;;;;;5048100;27;102408;-76
2024/01/03 01:09:08;;;;;;;12.90;2.22;;;;;;;;;;5049532;27;98232;-77
2024/01/03 01:11:35;;;;;;;11.10;2.65;;;;;;;;;;5049441;27;98392;-77
2024/01/03 01:14:02;;;;;;;14.80;2.35;;;;;;;;;;5048406;27;99104;-78
2024/01/03 01:16:29;;;;;;;15.98;3.53;;;;;;;;;;5047096;27;98293;-77
2024/01/03 01:18:55;;;;;;;18.35;4.47;;;;;;;;;;5049229;27;98183;-77
2024/01/03 01:21:22;;;;;;;19.60;3.78;;;;;;;;;;5048062;27;101988;-78
2024/01/03 01:23:49;;;;;;;22.13;2.60;;;;;;;;;;5052919;27;98227;-77
2024/01/03 01:26:15;;;;;;;4.55;1.63;;;;;;;;;;5048653;27;99986;-77
2024/01/03 01:28:42;;;;;;;28.23;3.92;;;;;;;;;;5049458;27;98022;-78
2024/01/03 01:31:09;;;;;;;16.70;3.80;;;;;;;;;;5048979;27;98542;-78
2024/01/03 01:33:35;;;;;;;14.65;3.13;;;;;;;;;;5049438;27;99981;-77
2024/01/03 01:36:02;;;;;;;21.52;3.45;;;;;;;;;;5047932;27;98431;-77
2024/01/03 01:38:29;;;;;;;19.52;4.15;;;;;;;;;;5048190;27;98644;-78
2024/01/03 01:40:55;;;;;;;22.83;3.70;;;;;;;;;;5047880;27;100898;-78
2024/01/03 01:43:21;;;;;;;20.05;3.45;;;;;;;;;;5049605;27;98452;-77
2024/01/03 01:45:48;;;;;;;15.52;3.40;;;;;;;;;;5051753;27;98368;-77
2024/01/03 01:48:15;;;;;;;24.55;4.43;;;;;;;;;;5048824;27;98043;-78
2024/01/03 01:50:42;;;;;;;19.55;3.15;;;;;;;;;;5049528;27;99000;-78
2024/01/03 01:53:10;;;;;;;34.38;4.85;;;;;;;;;;5048342;27;98858;-78
2024/01/03 01:55:38;;;;;;;13.13;3.50;;;;;;;;;;5049265;27;98091;-78
2024/01/03 01:58:05;;;;;;;14.10;2.92;;;;;;;;;;5047597;27;101184;-78
2024/01/03 02:00:32;;;;;;;20.50;3.67;;;;;;;;;;5048215;27;99448;-78
2024/01/03 02:03:00;;;;;;;19.27;3.75;;;;;;;;;;5047758;27;98234;-78
2024/01/03 02:05:27;;;;;;;18.83;3.60;;;;;;;;;;5049333;27;98483;-78
2024/01/03 02:07:54;;;;;;;15.20;3.70;;;;;;;;;;5051556;27;99994;-78
2024/01/03 02:10:20;;;;;;;11.93;2.83;;;;;;;;;;5048466;27;100056;-79
2024/01/03 02:12:47;;;;;;;12.48;2.63;;;;;;;;;;5047414;27;101717;-78
2024/01/03 02:15:14;;;;;;;14.82;3.45;;;;;;;;;;5047477;27;98551;-78
2024/01/03 02:17:41;;;;;;;11.55;3.28;;;;;;;;;;5048753;27;99517;-78
2024/01/03 02:20:08;;;;;;;12.10;3.47;;;;;;;;;;5046997;27;100054;-79
2024/01/03 02:22:35;;;;;;;13.57;4.95;;;;;;;;;;5048223;27;98122;-78
2024/01/03 02:25:04;;;;;;;23.13;3.72;;;;;;;;;;5048280;27;99364;-77
2024/01/03 02:27:31;;;;;;;30.05;3.47;;;;;;;;;;5046624;27;98875;-78
2024/01/03 02:29:57;;;;;;;15.20;3.60;;;;;;;;;;5051383;27;98197;-77
2024/01/03 02:32:24;;;;;;;16.55;2.83;;;;;;;;;;5048304;27;98986;-78
2024/01/03 02:34:50;;;;;;;17.85;2.83;;;;;;;;;;5047838;27;98559;-78
2024/01/03 02:37:22;;;;;;;18.20;3.13;;;;;;;;;;5048234;27;99404;-78
2024/01/03 02:39:49;;;;;;;21.15;5.07;;;;;;;;;;5048762;27;99941;-78
2024/01/03 02:42:15;;;;;;;13.45;2.75;;;;;;;;;;5047700;27;98308;-78
2024/01/03 02:44:42;;;;;;;20.17;3.15;;;;;;;;;;5049142;27;99677;-78
2024/01/03 02:47:08;;;;;;;11.98;3.65;;;;;;;;;;5048215;27;98860;-78
2024/01/03 02:49:35;;;;;;;16.10;2.22;;;;;;;;;;5047386;27;98291;-77
2024/01/03 02:52:01;;;;;;;18.92;3.08;;;;;;;;;;5054811;27;99689;-78
2024/01/03 02:54:28;;;;;;;17.58;2.75;;;;;;;;;;5047480;27;98263;-78
2024/01/03 02:56:54;;;;;;;13.27;2.90;;;;;;;;;;5047599;27;99591;-78
2024/01/03 02:59:21;;;;;;;10.30;2.35;;;;;;;;;;5047658;27;99310;-78
2024/01/03 03:01:48;;;;;;;13.10;3.17;;;;;;;;;;5048085;27;98262;-77
2024/01/03 03:04:14;;;;;;;13.45;3.15;;;;;;;;;;5047527;27;100310;-78
2024/01/03 03:06:40;;;;;;;16.58;2.40;;;;;;;;;;5048198;27;100529;-78
2024/01/03 03:09:07;;;;;;;14.98;3.00;;;;;;;;;;5049474;27;98618;-78
2024/01/03 03:11:42;;;;;;;13.82;3.17;;;;;;;;;;5047240;27;99447;-78
2024/01/03 03:14:10;;;;;;;16.80;3.65;;;;;;;;;;5050533;27;98256;-77
2024/01/03 03:16:37;;;;;;;17.20;3.67;;;;;;;;;;5046816;27;99698;-78
2024/01/03 03:19:05;;;;;;;18.15;3.72;;;;;;;;;;5047222;27;100029;-77
2024/01/03 03:21:32;;;;;;;15.32;4.03;;;;;;;;;;5047906;27;98783;-78
2024/01/03 03:23:58;;;;;;;21.52;3.88;;;;;;;;;;5046595;27;99495;-78
2024/01/03 03:26:25;;;;;;;20.15;3.30;;;;;;;;;;5047540;27;100287;-78
2024/01/03 03:28:52;;;;;;;17.75;3.03;;;;;;;;;;5047812;27;98320;-77
2024/01/03 03:31:18;;;;;;;17.38;3.63;;;;;;;;;;5046686;27;99921;-77
2024/01/03 03:33:44;;;;;;;21.95;3.38;;;;;;;;;;5050940;27;99988;-78
2024/01/03 03:36:11;;;;;;;15.98;2.75;;;;;;;;;;5047488;27;99348;-78
2024/01/03 03:38:38;;;;;;;12.60;3.17;;;;;;;;;;5045738;27;100404;-78
2024/01/03 03:41:11;;;;;;;22.52;3.65;;;;;;;;;;5046520;27;98194;-78
2024/01/03 03:43:39;;;;;;;23.35;3.28;;;;;;;;;;5047479;27;100468;-78
2024/01/03 03:46:10;;;;;;;6.95;2.25;;;;;;;;;;5046308;27;100060;-78
2024/01/03 03:48:37;;;;;;;26.95;4.65;;;;;;;;;;5047639;27;98621;-78
2024/01/03 03:51:04;;;;;;;13.63;3.15;;;;;;;;;;5047106;27;99389;-78
2024/01/03 03:53:30;;;;;;;18.52;3.42;;;;;;;;;;5046349;27;100117;-77
2024/01/03 03:55:57;;;;;;;17.42;3.33;;;;;;;;;;5050162;27;98360;-78
2024/01/03 03:58:23;;;;;;;26.85;4.68;;;;;;;;;;5047356;27;100147;-79
2024/01/03 04:00:50;;;;;;;12.80;3.70;;;;;;;;;;5046387;27;98655;-78
2024/01/03 04:03:17;;;;;;;19.83;3.00;;;;;;;;;;5047205;27;99547;-78
2024/01/03 04:05:43;;;;;;;22.90;4.07;;;;;;;;;;5045324;27;99850;-78
2024/01/03 04:08:10;;;;;;;19.58;4.07;;;;;;;;;;5046831;27;98250;-78
2024/01/03 04:10:37;;;;;;;19.05;3.70;;;;;;;;;;5047191;27;98770;-78
2024/01/03 04:13:03;;;;;;;22.05;4.15;;;;;;;;;;5046051;27;100145;-77
2024/01/03 04:15:30;;;;;;;23.00;5.30;;;;;;;;;;5046922;27;98777;-78
2024/01/03 04:17:57;;;;;;;15.10;3.35;;;;;;;;;;5050069;27;99394;-79
2024/01/03 04:20:23;;;;;;;22.30;4.00;;;;;;;;;;5046163;27;98236;-79
2024/01/03 04:22:50;;;;;;;16.10;3.67;;;;;;;;;;5047380;27;99494;-78
2024/01/03 04:25:17;;;;;;;33.72;5.70;;;;;;;;;;5045915;27;99992;-78
2024/01/03 04:27:43;;;;;;;19.73;5.00;;;;;;;;;;5046170;27;98218;-78
2024/01/03 04:30:11;;;;;;;23.48;4.53;;;;;;;;;;5045998;27;99375;-78
2024/01/03 04:32:37;;;;;;;27.85;5.35;;;;;;;;;;5046823;27;99940;-78
2024/01/03 04:35:04;;;;;;;27.77;5.10;;;;;;;;;;5045735;27;98349;-78
2024/01/03 04:37:32;;;;;;;23.63;4.35;;;;;;;;;;5046240;27;98471;-78
2024/01/03 04:39:58;;;;;;;20.38;4.60;;;;;;;;;;5049562;27;100029;-78
2024/01/03 04:42:25;;;;;;;9.15;3.95;;;;;;;;;;5046116;27;99879;-78
2024/01/03 04:44:52;;;;;;;26.40;4.28;;;;;;;;;;5045138;27;100367;-78
2024/01/03 04:47:19;;;;;;;17.58;3.60;;;;;;;;;;5046038;27;98265;-79
2024/01/03 04:49:45;;;;;;;30.13;4.97;;;;;;;;;;5046726;27;99526;-78
2024/01/03 04:52:12;;;;;;;23.85;4.05;;;;;;;;;;5049838;27;100135;-77
2024/01/03 04:54:39;;;;;;;28.42;4.97;;;;;;;;;;5049246;27;98230;-78
2024/01/03 04:57:05;;;;;;;23.27;5.47;;;;;;;;;;5049261;27;99811;-78
2024/01/03 04:59:31;;;;;;;24.35;4.72;;;;;;;;;;5049931;27;99939;-78
2024/01/03 05:01:58;;;;;;;34.22;5.07;;;;;;;;;;5052410;27;98245;-78
2024/01/03 05:04:25;;;;;;;45.45;5.82;;;;;;;;;;5049722;27;100219;-78
2024/01/03 05:06:51;;;;;;;34.45;4.90;;;;;;;;;;5049326;27;98110;-78
2024/01/03 05:09:18;;;;;;;28.42;4.93;;;;;;;;;;5048886;27;99509;-78
2024/01/03 05:11:44;;;;;;;27.42;5.43;;;;;;;;;;5049208;27;99792;-78
2024/01/03 05:14:11;;;;;;;26.25;4.72;;;;;;;;;;5049086;27;98273;-78
2024/01/03 05:16:37;;;;;;;26.95;5.60;;;;;;;;;;5049092;27;99441;-78
2024/01/03 05:19:03;;;;;;;27.70;4.63;;;;;;;;;;5048487;27;100030;-78
2024/01/03 05:21:30;;;;;;;29.83;4.43;;;;;;;;;;5052761;27;98200;-78
2024/01/03 05:23:57;;;;;;;27.15;5.05;;;;;;;;;;5048375;27;100075;-78
2024/01/03 05:26:23;;;;;;;22.13;5.10;;;;;;;;;;5049583;27;98244;-78
2024/01/03 05:28:50;;;;;;;29.27;5.05;;;;;;;;;;5049452;27;99399;-78
2024/01/03 05:31:16;;;;;;;20.85;4.68;;;;;;;;;;5048159;27;99999;-79
2024/01/03 05:33:43;;;;;;;31.35;4.80;;;;;;;;;;5049542;27;98264;-78
2024/01/03 05:36:10;;;;;;;28.92;5.05;;;;;;;;;;5049278;27;99344;-78
2024/01/03 05:38:36;;;;;;;32.08;5.70;;;;;;;;;;5048566;27;99938;-78
2024/01/03 05:41:04;;;;;;;28.65;4.63;;;;;;;;;;5049109;27;98309;-79
2024/01/03 05:43:33;;;;;;;26.90;6.10;;;;;;;;;;5051680;27;99388;-78
2024/01/03 05:45:59;;;;;;;32.20;5.85;;;;;;;;;;5047887;27;98443;-79
2024/01/03 05:48:26;;;;;;;27.17;4.85;;;;;;;;;;5049368;27;99350;-79
2024/01/03 05:50:53;;;;;;;35.53;5.90;;;;;;;;;;5049130;27;100077;-79
2024/01/03 05:53:19;;;;;;;32.15;6.85;;;;;;;;;;5048280;27;98247;-78
2024/01/03 05:55:46;;;;;;;32.25;5.25;;;;;;;;;;5049088;27;99550;-78
2024/01/03 05:58:12;;;;;;;21.98;4.53;;;;;;;;;;5048421;27;100527;-78
2024/01/03 06:00:39;;;;;;;25.55;4.75;;;;;;;;;;5049027;27;98287;-78
2024/01/03 06:03:05;;;;;;;19.48;3.42;;;;;;;;;;5047332;27;98754;-78
2024/01/03 06:05:32;;;;;;;32.33;4.43;;;;;;;;;;5050562;27;99014;-78
2024/01/03 06:08:00;;;;;;;23.30;4.13;;;;;;;;;;5047390;27;99894;-78
2024/01/03 06:10:26;;;;;;;24.30;3.97;;;;;;;;;;5048336;27;99906;-77
2024/01/03 06:12:53;;;;;;;16.35;3.25;;;;;;;;;;5048017;27;98441;-77
2024/01/03 06:15:19;;;;;;;22.98;4.32;;;;;;;;;;5048125;27;99413;-78
2024/01/03 06:17:45;;;;;;;21.80;2.95;;;;;;;;;;5048380;27;100781;-79
2024/01/03 06:20:12;;;;;;;12.38;2.67;;;;;;;;;;5047926;27;98251;-77
2024/01/03 06:22:38;;;;;;;21.48;3.72;;;;;;;;;;5048591;27;99583;-77
2024/01/03 06:25:05;;;;;;;22.85;3.63;;;;;;;;;;5048366;27;100314;-77
2024/01/03 06:27:33;;;;;;;11.50;3.20;;;;;;;;;;5051190;27;98281;-78
2024/01/03 06:29:59;;;;;;;11.20;2.72;;;;;;;;;;5047868;27;100037;-79
2024/01/03 06:32:26;;;;;;;23.38;3.67;;;;;;;;;;5048185;27;99336;-79
2024/01/03 06:34:52;;;;;;;23.25;3.47;;;;;;;;;;5048260;27;100007;-77
2024/01/03 06:37:19;;;;;;;19.02;2.88;;;;;;;;;;5047791;27;99998;-77
2024/01/03 06:39:45;;;;;;;6.10;1.98;;;;;;;;;;5050295;27;98301;-77
2024/01/03 06:42:11;;;;;;;10.88;2.72;;;;;;;;;;5047859;27;99635;-77
2024/01/03 06:44:38;;;;;;;17.58;2.83;;;;;;;;;;5049072;27;99851;-78
2024/01/03 06:47:04;;;;;;;20.77;2.92;;;;;;;;;;5047905;27;98260;-78
2024/01/03 06:49:31;;;;;;;16.00;2.55;;;;;;;;;;5050917;27;99641;-77
2024/01/03 06:51:57;;;;;;;9.90;2.50;;;;;;;;;;5048200;27;98645;-77
2024/01/03 06:54:24;;;;;;;13.63;2.92;;;;;;;;;;5048097;27;99440;-79
2024/01/03 06:56:50;;;;;;;13.07;2.28;;;;;;;;;;5046052;27;98311;-78
2024/01/03 06:59:17;;;;;;;17.42;3.22;;;;;;;;;;5048105;27;98509;-78
2024/01/03 07:01:43;;;;;;;10.48;3.00;;;;;;;;;;5050345;27;99378;-78
2024/01/03 07:04:09;;;;;;;16.27;3.33;;;;;;;;;;5048005;27;98051;-78
2024/01/03 07:06:36;;;;;;;12.82;5.35;;;;;;;;;;5047967;27;98166;-78
2024/01/03 07:09:02;;;;;;;18.25;2.35;;;;;;;;;;5047031;27;99475;-78
2024/01/03 07:11:29;;;;;;;9.93;2.95;;;;;;;;;;5051116;27;99966;-78
2024/01/03 07:13:58;;;;;;;16.88;2.55;;;;;;;;;;5046578;27;100176;-78
2024/01/03 07:16:26;;;;;;;11.32;3.15;;;;;;;;;;5046408;27;99207;-77
2024/01/03 07:18:52;;;;;;;6.45;2.10;;;;;;;;;;5047776;27;98536;-77
2024/01/03 07:21:20;;;;;;;7.50;2.65;;;;;;;;;;5046073;27;98581;-78
2024/01/03 07:23:46;;;;;;;8.73;2.15;;;;;;;;;;5046683;27;100015;-78
2024/01/03 07:26:13;;;;;;;11.32;2.72;;;;;;;;;;5047357;27;98282;-78
2024/01/03 07:28:39;;;;;;;10.95;1.98;;;;;;;;;;5046934;27;98794;-78
2024/01/03 07:31:05;;;;;;;6.78;2.00;;;;;;;;;;5049833;27;100315;-78
2024/01/03 07:33:32;;;;;;;6.88;2.10;;;;;;;;;;5047740;27;99717;-78
2024/01/03 07:35:59;;;;;;;12.85;2.63;;;;;;;;;;5047220;27;100104;-78
2024/01/03 07:38:26;;;;;;;6.57;1.85;;;;;;;;;;5046863;27;98237;-78
2024/01/03 07:40:52;;;;;;;6.00;2.40;;;;;;;;;;5046747;27;98901;-78
2024/01/03 07:43:19;;;;;;;7.35;1.92;;;;;;;;;;5046947;27;100193;-78
2024/01/03 07:45:45;;;;;;;10.77;1.77;;;;;;;;;;5046667;27;98242;-78
2024/01/03 07:48:12;;;;;;;4.82;1.40;;;;;;;;;;5047943;27;99662;-77
2024/01/03 07:50:39;;;;;;;8.95;2.03;;;;;;;;;;5047047;27;100072;-78
2024/01/03 07:53:07;;;;;;;2.42;1.20;;;;;;;;;;5049443;27;98757;-77
2024/01/03 07:55:33;;;;;;;4.07;1.63;;;;;;;;;;5047006;27;99901;-78
2024/01/03 07:58:00;;;;;;;6.63;1.80;;;;;;;;;;5046289;27;98583;-78
2024/01/03 08:00:29;;;;;;;8.02;1.60;;;;;;;;;;5047218;27;99611;-78
2024/01/03 08:02:56;;;;;;;17.50;1.90;;;;;;;;;;5047563;27;100225;-77
2024/01/03 08:05:23;;;;;;;10.85;2.65;;;;;;;;;;5049627;27;98525;-78
2024/01/03 08:07:49;;;;;;;16.23;2.03;;;;;;;;;;5046925;27;99531;-78
2024/01/03 08:10:16;;;;;;;11.13;1.98;;;;;;;;;;5045954;27;99987;-79
2024/01/03 08:12:42;;;;;;;16.33;2.00;;;;;;;;;;5046293;27;98597;-79
2024/01/03 08:15:09;;;;;;;9.60;1.80;;;;;;;;;;5049418;27;99459;-79
2024/01/03 08:17:35;;;;;;;13.85;2.28;;;;;;;;;;5046883;27;98296;-79
2024/01/03 08:20:03;;;;;;;8.65;1.88;;;;;;;;;;5045130;27;98290;-78
2024/01/03 08:22:30;;;;;;;12.18;2.88;;;;;;;;;;5046554;27;100162;-78
2024/01/03 08:24:56;;;;;;;19.17;2.50;;;;;;;;;;5047023;27;98360;-77
2024/01/03 08:27:23;;;;;;;15.45;2.95;;;;;;;;;;5049796;27;98714;-78
2024/01/03 08:29:49;;;;;;;16.63;2.33;;;;;;;;;;5050059;27;99972;-80
2024/01/03 08:32:16;;;;;;;7.97;1.73;;;;;;;;;;5050515;27;99452;-78
2024/01/03 08:34:46;;;;;;;17.33;2.75;;;;;;;;;;5048997;27;98616;-78
2024/01/03 08:37:12;;;;;;;14.90;2.88;;;;;;;;;;5053130;27;100064;-78
2024/01/03 08:39:39;;;;;;;18.23;3.05;;;;;;;;;;5050314;27;99337;-79
2024/01/03 08:42:05;;;;;;;14.43;1.92;;;;;;;;;;5048902;27;99951;-79
2024/01/03 08:44:32;;;;;;;11.32;2.03;;;;;;;;;;5050379;27;98528;-79
2024/01/03 08:46:58;;;;;;;17.30;3.90;;;;;;;;;;5049026;27;98423;-79
2024/01/03 08:49:25;;;;;;;21.40;3.75;;;;;;;;;;5049149;27;99494;-80
2024/01/03 08:51:51;;;;;;;14.45;2.92;;;;;;;;;;5050616;27;98951;-79
2024/01/03 08:54:18;;;;;;;10.35;2.17;;;;;;;;;;5049315;27;99617;-79
2024/01/03 08:56:47;;;;;;;11.05;2.63;;;;;;;;;;5049513;27;99966;-80
2024/01/03 08:59:13;;;;;;;19.75;2.22;;;;;;;;;;5052453;27;98234;-79
2024/01/03 09:01:39;;;;;;;17.52;3.08;;;;;;;;;;5048868;27;100001;-79
2024/01/03 09:04:06;;;;;;;29.83;2.95;;;;;;;;;;5049713;27;98265;-80
2024/01/03 09:06:35;;;;;;;21.08;3.13;;;;;;;;;;5050284;27;99641;-80
2024/01/03 09:09:02;;;;;;;25.88;4.00;;;;;;;;;;5048644;27;100297;-80
2024/01/03 09:11:28;;;;;;;13.15;2.90;;;;;;;;;;5049079;27;98261;-79
2024/01/03 09:13:57;;;;;;;17.25;3.25;;;;;;;;;;5048364;27;98554;-79
2024/01/03 09:16:26;;;;;;;26.95;3.05;;;;;;;;;;5048756;27;99875;-80
2024/01/03 09:18:52;;;;;;;14.90;3.17;;;;;;;;;;5048652;27;98246;-79
2024/01/03 09:21:19;;;;;;;14.65;3.00;;;;;;;;;;5052390;27;99584;-79
2024/01/03 09:23:46;;;;;;;16.67;3.83;;;;;;;;;;5048150;27;99369;-79
2024/01/03 09:26:14;;;;;;;16.27;3.25;;;;;;;;;;5049189;27;98297;-80
2024/01/03 09:28:41;;;;;;;24.23;4.93;;;;;;;;;;5049104;27;99771;-79
2024/01/03 09:31:08;;;;;;;24.45;3.42;;;;;;;;;;5048370;27;98217;-79
2024/01/03 09:33:35;;;;;;;13.95;2.72;;;;;;;;;;5049254;27;99799;-79
2024/01/03 09:36:01;;;;;;;20.40;3.20;;;;;;;;;;5048286;27;100525;-80
2024/01/03 09:38:29;;;;;;;8.98;3.25;;;;;;;;;;5048225;27;98139;-79
2024/01/03 09:40:57;;;;;;;16.83;3.63;;;;;;;;;;5052608;27;99621;-79
2024/01/03 09:43:24;;;;;;;22.88;3.88;;;;;;;;;;5048146;27;98252;-80
2024/01/03 09:45:50;;;;;;;22.55;3.67;;;;;;;;;;5049244;27;99494;-79
2024/01/03 09:48:17;;;;;;;17.05;2.55;;;;;;;;;;5047962;27;100416;-80
2024/01/03 09:50:45;;;;;;;15.27;3.47;;;;;;;;;;5048540;27;98172;-79
2024/01/03 09:53:13;;;;;;;10.57;2.85;;;;;;;;;;5048915;27;99373;-80
2024/01/03 09:55:39;;;;;;;15.07;2.85;;;;;;;;;;5049224;27;99930;-80
2024/01/03 09:58:06;;;;;;;19.40;3.00;;;;;;;;;;5048340;27;98230;-79
2024/01/03 10:00:33;;;;;;;15.18;3.17;;;;;;;;;;5049616;27;99510;-79
2024/01/03 10:03:00;;;;;;;18.10;3.60;;;;;;;;;;5052133;27;100048;-79
2024/01/03 10:05:27;;;;;;;17.83;3.58;;;;;;;;;;5048824;27;99386;-79
2024/01/03 10:07:54;;;;;;;9.38;2.75;;;;;;;;;;5048654;27;100338;-79
2024/01/03 10:10:31;;;;;;;8.82;1.75;;;;;;;;;;5048688;27;98156;-79
2024/01/03 10:13:17;;;;;;;15.85;2.15;;;;;;;;;;5046637;27;98926;-79
2024/01/03 10:15:45;;;;;;;5.28;2.00;;;;;;;;;;5048271;27;99996;-79
2024/01/03 10:18:14;;;;;;;7.85;2.25;;;;;;;;;;5048668;27;98036;-78
2024/01/03 10:20:44;;;;;;;;;;;;;;;;;;5048413;27;99734;-79
2024/01/03 10:23:12;;;;;;;7.68;1.70;;;;;;;;;;5047396;27;130165;-79
2024/01/03 10:25:39;;;;;;;5.38;1.88;;;;;;;;;;5051137;27;98269;-78
2024/01/03 10:28:06;;;;;;;14.02;3.13;;;;;;;;;;5047328;27;99148;-79
2024/01/03 10:30:33;;;;;;;13.05;2.45;;;;;;;;;;5049089;27;98031;-78
2024/01/03 10:33:01;;;;;;;7.43;2.08;;;;;;;;;;5047579;27;99306;-78
2024/01/03 10:35:29;;;;;;;9.10;2.63;;;;;;;;;;5055479;27;99290;-79
2024/01/03 10:37:56;;;;;;;7.43;2.25;;;;;;;;;;5047739;27;98200;-78
2024/01/03 10:40:24;;;;;;;17.70;3.03;;;;;;;;;;5048085;27;99681;-79
2024/01/03 10:42:51;;;;;;;17.20;3.13;;;;;;;;;;5047751;27;99281;-79
2024/01/03 10:45:18;;;;;;;16.08;2.97;;;;;;;;;;5048075;27;98249;-77
2024/01/03 10:47:44;;;;;;;18.25;3.20;;;;;;;;;;5050407;27;99493;-78
2024/01/03 10:50:11;;;;;;;16.02;2.78;;;;;;;;;;5047376;27;99341;-79
2024/01/03 10:52:38;;;;;;;14.80;2.80;;;;;;;;;;5052562;27;99391;-78
2024/01/03 10:55:05;;;;;;;21.83;2.78;;;;;;;;;;5047379;27;99861;-79
2024/01/03 10:57:35;;;;;;;17.50;2.95;;;;;;;;;;5048203;27;98764;-79
2024/01/03 11:00:13;;;;;;;17.00;2.92;;;;;;;;;;5048042;27;99480;-79
2024/01/03 11:02:45;;;;;;;15.80;4.18;;;;;;;;;;5046214;27;99919;-79
2024/01/03 11:05:12;;;;;;;;;;;;;;;;;;5048134;27;99008;-79
2024/01/03 11:07:44;;;;;;;14.32;3.00;;;;;;;;;;5046826;27;129341;-79
2024/01/03 11:10:30;;;;;;;22.55;3.90;;;;;;;;;;5050653;27;99977;-79
2024/01/03 11:12:57;;;;;;;20.77;3.75;;;;;;;;;;5047299;27;99864;-79
2024/01/03 11:15:24;;;;;;;13.23;2.45;;;;;;;;;;5046745;27;100048;-80
2024/01/03 11:18:06;;;;;;;26.15;3.65;;;;;;;;;;5047433;27;98201;-80
2024/01/03 11:20:33;;;;;;;19.10;3.97;;;;;;;;;;5047982;27;99688;-80
2024/01/03 11:23:04;;;;;;;19.10;3.72;;;;;;;;;;5046458;27;99974;-80
2024/01/03 11:25:51;;;;;;;12.32;3.50;;;;;;;;;;5047027;27;98675;-80
2024/01/03 11:28:31;;;;;;;18.60;4.00;;;;;;;;;;5046354;27;99559;-80
2024/01/03 11:30:58;;;;;;;15.45;2.83;;;;;;;;;;5046906;27;100294;-80
2024/01/03 11:33:27;;;;;;;24.52;4.65;;;;;;;;;;5051691;27;98082;-80
2024/01/03 11:35:54;;;;;;;19.50;3.30;;;;;;;;;;5046518;27;99865;-79
2024/01/03 11:38:37;;;;;;;23.33;4.13;;;;;;;;;;5047040;27;98384;-79
2024/01/03 11:41:04;;;;;;;17.50;2.83;;;;;;;;;;5047305;27;99606;-79
2024/01/03 11:43:30;;;;;;;26.52;4.63;;;;;;;;;;5046576;27;100243;-79
2024/01/03 11:46:06;;;;;;;31.85;5.78;;;;;;;;;;5047519;27;98816;-79
2024/01/03 11:48:33;;;;;;;19.95;3.45;;;;;;;;;;5047126;27;99522;-79
2024/01/03 11:50:59;;;;;;;33.85;5.00;;;;;;;;;;5046546;27;99938;-79
2024/01/03 11:53:26;;;;;;;20.90;3.45;;;;;;;;;;5049808;27;98795;-79
2024/01/03 11:55:53;;;;;;;21.48;4.50;;;;;;;;;;5046369;27;99357;-79
2024/01/03 11:58:20;;;;;;;24.27;5.57;;;;;;;;;;5046199;27;98245;-80
2024/01/03 12:00:46;;;;;;;17.80;3.40;;;;;;;;;;5049215;27;99729;-79
2024/01/03 12:03:18;;;;;;;22.73;4.53;;;;;;;;;;5050390;27;99951;-80
2024/01/03 12:05:45;;;;;;;25.53;4.13;;;;;;;;;;5051323;27;98285;-80
2024/01/03 12:08:12;;;;;;;24.05;3.13;;;;;;;;;;5050323;27;99640;-79
2024/01/03 12:10:40;;;;;;;21.50;5.05;;;;;;;;;;5050931;27;99911;-79
2024/01/03 12:13:07;;;;;;;20.80;4.95;;;;;;;;;;5049559;27;98262;-80
2024/01/03 12:15:35;;;;;;;24.75;4.00;;;;;;;;;;5053202;27;99670;-79
2024/01/03 12:18:14;;;;;;;25.30;3.28;;;;;;;;;;5049068;27;98288;-79
2024/01/03 12:20:41;;;;;;;17.35;3.83;;;;;;;;;;5050637;27;99402;-79
2024/01/03 12:23:11;;;;;;;19.90;3.80;;;;;;;;;;5050004;27;100464;-80
2024/01/03 12:25:38;;;;;;;26.15;5.45;;;;;;;;;;5049278;27;98328;-80
2024/01/03 12:28:06;;;;;;;26.73;4.35;;;;;;;;;;5050336;27;99509;-80
2024/01/03 12:30:32;;;;;;;29.58;4.00;;;;;;;;;;5050316;27;100122;-80
2024/01/03 12:33:13;;;;;;;27.08;4.45;;;;;;;;;;5049428;27;98201;-80
2024/01/03 12:35:41;;;;;;;36.88;5.05;;;;;;;;;;5050534;27;99318;-80
2024/01/03 12:38:07;;;;;;;28.13;4.90;;;;;;;;;;5053241;27;100324;-81
2024/01/03 12:40:34;;;;;;;23.02;4.57;;;;;;;;;;5049287;27;99759;-81
2024/01/03 12:43:02;;;;;;;29.80;5.13;;;;;;;;;;5048760;27;99901;-79
2024/01/03 12:45:29;;;;;;;23.08;4.78;;;;;;;;;;5050112;27;98184;-79
2024/01/03 12:47:55;;;;;;;30.38;5.07;;;;;;;;;;5049415;27;99275;-80
2024/01/03 12:50:22;;;;;;;26.85;4.20;;;;;;;;;;5049861;27;100655;-80
2024/01/03 12:52:48;;;;;;;33.00;5.57;;;;;;;;;;5049911;27;98238;-79
2024/01/03 12:55:15;;;;;;;32.90;5.40;;;;;;;;;;5048879;27;99378;-79
2024/01/03 12:57:41;;;;;;;31.13;5.60;;;;;;;;;;5049681;27;100091;-80
2024/01/03 13:00:10;;;;;;;25.42;5.45;;;;;;;;;;5053147;27;98633;-80
2024/01/03 13:02:36;;;;;;;30.45;6.15;;;;;;;;;;5048927;27;100214;-80
2024/01/03 13:05:03;;;;;;;28.30;4.60;;;;;;;;;;5049521;27;98332;-80
2024/01/03 13:07:30;;;;;;;21.83;4.25;;;;;;;;;;5047966;27;98632;-79
2024/01/03 13:09:56;;;;;;;20.67;5.30;;;;;;;;;;5049120;27;100214;-80
2024/01/03 13:12:23;;;;;;;20.63;4.25;;;;;;;;;;5049718;27;98483;-80
2024/01/03 13:14:50;;;;;;;18.30;3.40;;;;;;;;;;5048557;27;99382;-80
2024/01/03 13:17:17;;;;;;;23.20;3.72;;;;;;;;;;5049080;27;99984;-80
2024/01/03 13:19:43;;;;;;;24.92;4.70;;;;;;;;;;5049694;27;98186;-81
2024/01/03 13:22:10;;;;;;;26.63;4.22;;;;;;;;;;5051419;27;99303;-82
2024/01/03 13:24:39;;;;;;;26.30;3.83;;;;;;;;;;5049610;27;98234;-81
2024/01/03 13:27:05;;;;;;;22.92;4.10;;;;;;;;;;5049113;27;99505;-81
2024/01/03 13:29:32;;;;;;;14.15;4.20;;;;;;;;;;5047799;27;98989;-81
2024/01/03 13:31:58;;;;;;;28.42;4.35;;;;;;;;;;5048088;27;98307;-78
2024/01/03 13:34:25;;;;;;;13.60;3.53;;;;;;;;;;5049121;27;99542;-80
2024/01/03 13:36:51;;;;;;;19.33;4.05;;;;;;;;;;5048100;27;99980;-81
2024/01/03 13:39:18;;;;;;;18.80;3.63;;;;;;;;;;5048816;27;98309;-81
2024/01/03 13:41:45;;;;;;;9.98;2.88;;;;;;;;;;5048871;27;99482;-80
2024/01/03 13:44:11;;;;;;;17.02;2.90;;;;;;;;;;5051066;27;98258;-81
2024/01/03 13:46:38;;;;;;;11.07;2.92;;;;;;;;;;5049238;27;99643;-81
2024/01/03 13:49:08;;;;;;;18.95;4.22;;;;;;;;;;5048805;27;99862;-81
2024/01/03 13:51:35;;;;;;;18.45;4.00;;;;;;;;;;5047667;27;98255;-81
2024/01/03 13:54:01;;;;;;;16.98;3.45;;;;;;;;;;5048660;27;99427;-80
2024/01/03 13:56:28;;;;;;;24.35;3.45;;;;;;;;;;5047690;27;100251;-80
2024/01/03 13:58:54;;;;;;;14.02;3.15;;;;;;;;;;5048483;27;98569;-80
2024/01/03 14:01:21;;;;;;;18.58;3.53;;;;;;;;;;5048744;27;99671;-80
2024/01/03 14:03:48;;;;;;;16.52;3.53;;;;;;;;;;5050815;27;99902;-80
2024/01/03 14:06:15;;;;;;;13.27;3.00;;;;;;;;;;5048343;27;98898;-79
2024/01/03 14:08:42;;;;;;;19.92;3.28;;;;;;;;;;5048301;27;99862;-80
2024/01/03 14:11:08;;;;;;;20.00;3.63;;;;;;;;;;5047692;27;98719;-80
2024/01/03 14:13:35;;;;;;;11.27;3.53;;;;;;;;;;5048561;27;99796;-80
2024/01/03 14:16:04;;;;;;;8.45;2.55;;;;;;;;;;5048068;27;100001;-80
2024/01/03 14:18:30;;;;;;;19.73;3.72;;;;;;;;;;5048289;27;98243;-80
2024/01/03 14:20:57;;;;;;;16.42;2.92;;;;;;;;;;5049159;27;99785;-80
2024/01/03 14:23:24;;;;;;;21.85;3.60;;;;;;;;;;5050528;27;98946;-80
2024/01/03 14:25:53;;;;;;;15.23;2.88;;;;;;;;;;5059985;27;98623;-80
2024/01/03 14:28:20;;;;;;;12.38;3.60;;;;;;;;;;5060318;27;99974;-78
2024/01/03 14:30:46;;;;;;;10.15;2.53;;;;;;;;;;5050997;27;98301;-79